Time;durP1;ratioP1;P1;durP2;ratioP2;P2;SDS_P1;SDS_P2;PMS_P1;PMS_P2;Temp;Humidity;BMP_temperature;BMP_pressure;BME280_temperature;BME280_humidity;BME280_pressure;Samples;Min_cycle;Max_cycle;Signal;HPM_P1;HPM_P2
2024/04/14 00:01:21;;;;;;;22.85;5.10;;;;;;;9.51;nan;101305.44;5250602;27;20010;-94
2024/04/14 00:03:57;;;;;;;30.13;5.05;;;;;;;9.43;nan;101308.31;5250852;27;20006;-95
2024/04/14 00:06:22;;;;;;;29.23;5.63;;;;;;;9.41;nan;101305.81;5250747;27;20008;-95
2024/04/14 00:08:49;;;;;;;33.75;5.28;;;;;;;9.41;nan;101302.38;5250744;27;20002;-94
2024/04/14 00:11:15;;;;;;;38.47;7.22;;;;;;;9.41;nan;101298.09;5250782;27;19987;-94
2024/04/14 00:13:40;;;;;;;41.83;5.63;;;;;;;9.31;nan;101306.22;5250586;27;19999;-93
2024/04/14 00:16:06;;;;;;;29.83;5.32;;;;;;;9.40;nan;101311.84;5270587;27;20013;-94
2024/04/14 00:18:31;;;;;;;26.92;5.38;;;;;;;9.50;nan;101316.66;5283586;27;19997;-95
2024/04/14 00:20:56;;;;;;;23.80;3.50;;;;;;;9.53;nan;101309.63;5284542;27;20403;-95
2024/04/14 00:23:22;;;;;;;25.75;4.20;;;;;;;9.58;nan;101312.91;5284159;27;20012;-94
2024/04/14 00:25:48;;;;;;;23.88;3.90;;;;;;;9.45;nan;101322.00;5283662;27;20509;-95
2024/04/14 00:28:13;;;;;;;37.28;4.93;;;;;;;9.53;nan;101321.69;5284125;27;20013;-96
2024/04/14 00:30:38;;;;;;;21.52;4.80;;;;;;;9.46;nan;101325.41;5265646;27;20003;-95
2024/04/14 00:33:04;;;;;;;28.40;4.32;;;;;;;9.33;nan;101333.59;5250245;27;20002;-95
2024/04/14 00:35:29;;;;;;;27.42;4.47;;;;;;;9.23;nan;101334.84;5250294;27;19998;-94
2024/04/14 00:37:55;;;;;;;33.97;6.22;;;;;;;9.09;nan;101330.19;5249977;27;19998;-94
2024/04/14 00:40:20;;;;;;;30.30;4.50;;;;;;;9.24;nan;101318.47;5249985;27;19998;-93
2024/04/14 00:42:46;;;;;;;22.17;5.57;;;;;;;9.27;nan;101335.59;5250446;27;20333;-95
2024/04/14 00:45:11;;;;;;;27.67;5.15;;;;;;;9.39;nan;101338.53;5251090;27;20010;-95
2024/04/14 00:47:37;;;;;;;31.80;5.55;;;;;;;9.35;nan;101331.81;5250903;27;20002;-95
2024/04/14 00:50:06;;;;;;;20.63;3.47;;;;;;;9.45;nan;101321.16;5251055;27;20006;-95
2024/04/14 00:52:31;;;;;;;37.83;5.90;;;;;;;9.31;nan;101329.41;5251113;27;20451;-94
2024/04/14 00:54:57;;;;;;;25.02;4.97;;;;;;;9.23;nan;101327.13;5250269;27;19998;-96
2024/04/14 00:57:23;;;;;;;35.38;5.32;;;;;;;9.39;nan;101332.53;5249900;27;20012;-94
2024/04/14 00:59:50;;;;;;;34.50;4.90;;;;;;;9.37;nan;101330.03;5249610;27;20436;-96
2024/04/14 01:02:15;;;;;;;24.40;4.28;;;;;;;9.38;nan;101331.69;5250392;27;20010;-94
2024/04/14 01:04:40;;;;;;;16.92;3.60;;;;;;;9.36;nan;101330.94;5250408;27;20068;-94
2024/04/14 01:07:06;;;;;;;23.08;3.42;;;;;;;9.38;nan;101342.00;5250412;27;19998;-95
2024/04/14 01:09:31;;;;;;;19.92;4.10;;;;;;;9.37;nan;101335.16;5250220;27;20002;-94
2024/04/14 01:11:56;;;;;;;23.15;4.30;;;;;;;9.36;nan;101338.66;5250243;27;20013;-95
2024/04/14 01:14:22;;;;;;;18.38;3.40;;;;;;;9.39;nan;101341.09;5250079;27;20003;-94
2024/04/14 01:16:47;;;;;;;33.75;4.90;;;;;;;9.37;nan;101342.06;5249901;27;20041;-93
2024/04/14 01:19:13;;;;;;;28.75;4.15;;;;;;;9.32;nan;101336.25;5250000;27;20328;-94
2024/04/14 01:21:38;;;;;;;22.42;3.88;;;;;;;9.31;nan;101332.81;5250288;27;20017;-95
2024/04/14 01:24:04;;;;;;;29.48;5.05;;;;;;;9.29;nan;101331.19;5249946;27;20013;-96
2024/04/14 01:26:29;;;;;;;18.40;3.30;;;;;;;9.37;nan;101334.34;5249404;27;20010;-94
2024/04/14 01:28:54;;;;;;;15.02;3.00;;;;;;;9.31;nan;101337.13;5249243;27;20453;-96
2024/04/14 01:31:20;;;;;;;21.90;4.00;;;;;;;9.32;nan;101329.34;5249542;27;19998;-95
2024/04/14 01:33:45;;;;;;;17.33;3.58;;;;;;;9.33;nan;101345.66;5249143;27;20010;-95
2024/04/14 01:36:12;;;;;;;16.25;2.95;;;;;;;9.28;nan;101350.13;5222238;27;20078;-96
2024/04/14 01:38:37;;;;;;;16.80;3.45;;;;;;;9.26;nan;101342.44;5249529;27;20010;-94
2024/04/14 01:41:03;;;;;;;19.05;3.55;;;;;;;9.16;nan;101349.69;5249301;27;20030;-95
2024/04/14 01:43:29;;;;;;;23.42;3.63;;;;;;;9.05;nan;101341.53;5249533;27;20097;-93
2024/04/14 01:45:54;;;;;;;24.15;3.22;;;;;;;9.13;nan;101336.09;5249723;27;20006;-96
2024/04/14 01:48:20;;;;;;;21.55;3.47;;;;;;;9.11;nan;101348.19;5249827;27;19998;-94
2024/04/14 01:50:46;;;;;;;26.45;3.72;;;;;;;9.10;nan;101346.50;5250216;27;19998;-93
2024/04/14 01:53:11;;;;;;;22.67;3.65;;;;;;;9.14;nan;101337.75;5249855;27;20076;-95
2024/04/14 01:55:36;;;;;;;23.77;3.20;;;;;;;9.15;nan;101329.16;5249110;27;20009;-95
2024/04/14 01:58:02;;;;;;;24.27;3.75;;;;;;;9.08;nan;101346.56;5252745;27;20010;-95
2024/04/14 02:00:28;;;;;;;17.65;3.28;;;;;;;9.08;nan;101348.31;5282636;27;20463;-95
2024/04/14 02:02:55;;;;;;;17.83;3.42;;;;;;;9.10;nan;101351.66;5282566;27;20036;-94
2024/04/14 02:05:21;;;;;;;21.70;3.85;;;;;;;9.09;nan;101353.38;5282319;27;20001;-93
2024/04/14 02:07:46;;;;;;;18.77;3.53;;;;;;;8.98;nan;101358.94;5282340;27;20002;-94
2024/04/14 02:10:12;;;;;;;20.83;4.03;;;;;;;8.99;nan;101365.75;5281003;27;20001;-95
2024/04/14 02:12:37;;;;;;;14.43;2.75;;;;;;;9.06;nan;101368.13;5267315;27;20007;-96
2024/04/14 02:15:02;;;;;;;21.25;3.08;;;;;;;9.08;nan;101380.03;5248771;27;20012;-95
2024/04/14 02:17:28;;;;;;;18.30;3.13;;;;;;;9.02;nan;101379.41;5249228;27;19998;-93
2024/04/14 02:19:53;;;;;;;19.80;2.90;;;;;;;8.85;nan;101373.16;5250556;27;19998;-95
2024/04/14 02:22:19;;;;;;;25.63;3.97;;;;;;;8.85;nan;101372.28;5250965;27;20010;-95
2024/04/14 02:24:47;;;;;;;18.48;3.70;;;;;;;8.81;nan;101356.13;5273315;27;20009;-93
2024/04/14 02:27:13;;;;;;;25.70;3.70;;;;;;;8.79;nan;101357.91;5277481;27;20021;-94
2024/04/14 02:29:38;;;;;;;23.98;4.03;;;;;;;8.72;nan;101351.28;5297470;27;20001;-95
2024/04/14 02:32:04;;;;;;;19.42;3.13;;;;;;;8.78;nan;101361.38;5283810;27;20013;-95
2024/04/14 02:34:29;;;;;;;21.88;3.35;;;;;;;8.72;nan;101359.84;5281055;27;20002;-96
2024/04/14 02:36:54;;;;;;;29.25;3.17;;;;;;;8.71;nan;101355.59;5282103;27;19998;-95
2024/04/14 02:39:21;;;;;;;18.70;3.90;;;;;;;8.65;nan;101352.41;5282065;27;20008;-95
2024/04/14 02:41:46;;;;;;;21.13;2.95;;;;;;;8.68;nan;101365.16;5282083;27;20080;-95
2024/04/14 02:44:12;;;;;;;23.45;3.47;;;;;;;8.53;nan;101362.25;5282353;27;20006;-95
2024/04/14 02:46:38;;;;;;;17.00;3.08;;;;;;;8.56;nan;101362.13;5281601;27;20012;-93
2024/04/14 02:49:03;;;;;;;22.60;3.30;;;;;;;8.57;nan;101358.66;5280782;27;20009;-93
2024/04/14 02:51:28;;;;;;;16.83;2.67;;;;;;;8.66;nan;101361.81;5282370;27;20514;-95
2024/04/14 02:53:54;;;;;;;26.02;3.53;;;;;;;8.43;nan;101360.00;5282095;27;19998;-93
2024/04/14 02:56:19;;;;;;;21.50;4.07;;;;;;;8.45;nan;101371.09;5281841;27;19997;-95
2024/04/14 02:58:45;;;;;;;20.27;3.40;;;;;;;8.35;nan;101363.66;5281947;27;20526;-95
2024/04/14 03:01:13;;;;;;;21.10;3.75;;;;;;;8.24;nan;101364.88;5270678;27;19998;-94
2024/04/14 03:03:39;;;;;;;18.83;2.70;;;;;;;8.28;nan;101363.91;5248075;27;20014;-92
2024/04/14 03:06:05;;;;;;;15.30;2.90;;;;;;;8.19;nan;101359.88;5247682;27;20515;-96
2024/04/14 03:08:31;;;;;;;21.88;3.38;;;;;;;8.32;nan;101365.50;5247855;27;19998;-95
2024/04/14 03:10:58;;;;;;;15.75;2.67;;;;;;;8.33;nan;101359.44;5247781;27;20076;-95
2024/04/14 03:13:24;;;;;;;16.77;2.75;;;;;;;8.23;nan;101358.06;5247706;27;20437;-94
2024/04/14 03:15:51;;;;;;;21.83;2.67;;;;;;;8.23;nan;101363.22;5247894;27;20006;-93
2024/04/14 03:18:16;;;;;;;12.40;2.63;;;;;;;8.14;nan;101359.19;5247769;27;20010;-94
2024/04/14 03:20:42;;;;;;;16.85;2.88;;;;;;;7.97;nan;101357.16;5247611;27;20076;-96
2024/04/14 03:23:07;;;;;;;14.20;3.22;;;;;;;7.83;nan;101352.47;5251078;27;20002;-96
2024/04/14 03:25:33;;;;;;;19.33;2.63;;;;;;;7.82;nan;101347.38;5276738;27;20006;-92
2024/04/14 03:27:58;;;;;;;14.20;3.35;;;;;;;7.77;nan;101354.41;5281286;27;20423;-95
2024/04/14 03:30:24;;;;;;;14.02;2.28;;;;;;;7.79;nan;101352.63;5284593;27;20005;-94
2024/04/14 03:32:49;;;;;;;17.80;2.97;;;;;;;7.70;nan;101364.84;5284706;27;20383;-94
2024/04/14 03:35:15;;;;;;;9.60;3.10;;;;;;;7.74;nan;101357.06;5284539;27;20344;-93
2024/04/14 03:37:40;;;;;;;11.13;2.70;;;;;;;7.74;nan;101354.50;5282076;27;20002;-94
2024/04/14 03:40:06;;;;;;;13.48;2.08;;;;;;;7.55;nan;101356.78;5252102;27;20017;-95
2024/04/14 03:42:34;;;;;;;11.38;1.75;;;;;;;7.54;nan;101353.38;5250749;27;20590;-94
2024/04/14 03:45:05;;;;;;;18.73;2.72;;;;;;;7.46;nan;101345.03;5250916;27;20003;-95
2024/04/14 03:47:31;;;;;;;;;;;;;;;7.33;nan;101346.31;5252684;27;20002;-94
2024/04/14 03:49:57;;;;;;;12.63;2.25;;;;;;;7.62;nan;101351.41;5250547;27;19934;-94
2024/04/14 03:52:22;;;;;;;10.30;2.40;;;;;;;7.67;nan;101338.41;5250508;27;19998;-94
2024/04/14 03:54:48;;;;;;;17.55;2.60;;;;;;;7.43;nan;101337.44;5250737;27;20001;-93
2024/04/14 03:57:13;;;;;;;9.18;1.60;;;;;;;7.29;nan;101343.84;5250575;27;19994;-96
2024/04/14 03:59:39;;;;;;;13.40;2.22;;;;;;;7.33;nan;101333.47;5250805;27;20005;-95
2024/04/14 04:02:04;;;;;;;9.95;1.58;;;;;;;7.35;nan;101336.84;5250843;27;20037;-93
2024/04/14 04:04:30;;;;;;;11.57;2.40;;;;;;;7.31;nan;101336.06;5250341;27;19998;-94
2024/04/14 04:06:55;;;;;;;18.65;3.08;;;;;;;7.39;nan;101352.09;5250460;27;20010;-95
2024/04/14 04:09:20;;;;;;;12.68;2.28;;;;;;;7.42;nan;101358.88;5249756;27;20072;-94
2024/04/14 04:11:45;;;;;;;13.23;1.95;;;;;;;7.21;nan;101356.03;5250450;27;20014;-95
2024/04/14 04:14:11;;;;;;;12.10;2.35;;;;;;;7.11;nan;101352.06;5250073;27;20005;-95
2024/04/14 04:16:36;;;;;;;14.00;2.95;;;;;;;7.08;nan;101350.41;5250183;27;20014;-95
2024/04/14 04:19:02;;;;;;;11.18;2.58;;;;;;;7.12;nan;101351.19;5250327;27;19999;-94
2024/04/14 04:21:27;;;;;;;12.95;2.60;;;;;;;7.07;nan;101353.00;5250275;27;20488;-95
2024/04/14 04:23:52;;;;;;;14.82;3.10;;;;;;;7.15;nan;101351.09;5250412;27;19998;-95
2024/04/14 04:26:18;;;;;;;12.77;2.10;;;;;;;7.21;nan;101361.16;5249947;27;20009;-93
2024/04/14 04:28:43;;;;;;;7.82;1.95;;;;;;;7.29;nan;101359.25;5250213;27;19994;-93
2024/04/14 04:31:12;;;;;;;10.60;2.83;;;;;;;7.24;nan;101361.09;5250039;27;20009;-94
2024/04/14 04:33:39;;;;;;;12.98;2.38;;;;;;;7.46;nan;101361.31;5248686;27;20009;-95
2024/04/14 04:36:04;;;;;;;15.20;4.82;;;;;;;7.15;nan;101366.50;5249800;27;20002;-96
2024/04/14 04:38:30;;;;;;;12.93;2.70;;;;;;;6.90;nan;101360.34;5250091;27;19994;-95
2024/04/14 04:40:55;;;;;;;11.43;2.03;;;;;;;6.70;nan;101360.88;5250597;27;19993;-93
2024/04/14 04:43:23;;;;;;;12.23;2.05;;;;;;;6.62;nan;101366.22;5250105;27;20068;-95
2024/04/14 04:45:48;;;;;;;11.65;2.35;;;;;;;6.79;nan;101365.78;5250104;27;20080;-95
2024/04/14 04:48:13;;;;;;;12.57;2.15;;;;;;;6.68;nan;101366.03;5249747;27;20010;-93
2024/04/14 04:50:39;;;;;;;13.32;2.00;;;;;;;6.84;nan;101366.50;5249983;27;20009;-92
2024/04/14 04:53:04;;;;;;;8.55;1.50;;;;;;;6.84;nan;101366.50;5249821;27;19998;-95
2024/04/14 04:55:30;;;;;;;15.50;2.35;;;;;;;6.70;nan;101369.41;5250106;27;20010;-93
2024/04/14 04:57:55;;;;;;;7.47;1.70;;;;;;;6.63;nan;101384.16;5250231;27;20002;-94
2024/04/14 05:00:21;;;;;;;7.22;1.58;;;;;;;6.72;nan;101389.91;5250247;27;20010;-96
2024/04/14 05:02:46;;;;;;;9.02;1.80;;;;;;;6.54;nan;101396.38;5250490;27;20065;-95
2024/04/14 05:05:11;;;;;;;8.32;1.35;;;;;;;6.52;nan;101393.00;5250777;27;20005;-95
2024/04/14 05:07:37;;;;;;;6.90;1.83;;;;;;;6.64;nan;101390.13;5250814;27;19994;-95
2024/04/14 05:10:02;;;;;;;7.88;1.52;;;;;;;6.76;nan;101389.78;5250850;27;19994;-95
2024/04/14 05:12:28;;;;;;;9.65;1.40;;;;;;;6.90;nan;101394.56;5250519;27;19998;-95
2024/04/14 05:14:53;;;;;;;6.43;1.60;;;;;;;6.80;nan;101406.81;5250834;27;20010;-95
2024/04/14 05:17:18;;;;;;;12.32;1.67;;;;;;;6.58;nan;101393.69;5250182;27;19998;-95
2024/04/14 05:19:44;;;;;;;8.88;1.92;;;;;;;6.54;nan;101394.63;5249874;27;20017;-95
2024/04/14 05:22:09;;;;;;;7.60;1.58;;;;;;;6.32;nan;101393.50;5249763;27;19998;-95
2024/04/14 05:24:34;;;;;;;8.90;1.50;;;;;;;6.39;nan;101387.34;5248769;27;20002;-95
2024/04/14 05:27:01;;;;;;;6.47;1.65;;;;;;;6.43;nan;101391.50;5250187;27;20068;-96
2024/04/14 05:29:27;;;;;;;8.52;1.13;;;;;;;6.46;nan;101388.84;5249782;27;20008;-93
2024/04/14 05:31:53;;;;;;;13.35;1.50;;;;;;;6.41;nan;101399.25;5249119;27;19998;-95
2024/04/14 05:34:18;;;;;;;11.43;2.15;;;;;;;6.50;nan;101394.75;5249168;27;20008;-94
2024/04/14 05:36:44;;;;;;;9.45;1.65;;;;;;;6.55;nan;101395.47;5249293;27;20445;-94
2024/04/14 05:39:10;;;;;;;6.80;1.23;;;;;;;6.47;nan;101399.97;5250302;27;20006;-96
2024/04/14 05:41:35;;;;;;;10.55;1.48;;;;;;;6.43;nan;101407.72;5249697;27;20065;-94
2024/04/14 05:44:01;;;;;;;6.18;1.60;;;;;;;6.57;nan;101402.25;5248649;27;19994;-94
2024/04/14 05:46:26;;;;;;;7.32;1.27;;;;;;;6.63;nan;101407.25;5249478;27;20000;-93
2024/04/14 05:48:52;;;;;;;5.80;1.10;;;;;;;6.80;nan;101409.38;5249789;27;19991;-95
2024/04/14 05:51:19;;;;;;;8.07;1.40;;;;;;;6.61;nan;101406.44;5249488;27;20038;-94
2024/04/14 05:53:45;;;;;;;6.32;1.27;;;;;;;6.63;nan;101417.50;5249019;27;19990;-94
2024/04/14 05:56:10;;;;;;;8.73;1.10;;;;;;;6.63;nan;101414.06;5249497;27;19994;-94
2024/04/14 05:58:36;;;;;;;4.05;1.00;;;;;;;6.80;nan;101422.19;5249047;27;20009;-95
2024/04/14 06:01:05;;;;;;;5.95;1.48;;;;;;;6.81;nan;101411.03;5248969;27;19994;-95
2024/04/14 06:03:31;;;;;;;15.75;2.58;;;;;;;6.79;nan;101411.97;5248623;27;20002;-94
2024/04/14 06:05:56;;;;;;;8.15;1.27;;;;;;;6.71;nan;101409.59;5249105;27;20009;-95
2024/04/14 06:08:22;;;;;;;3.97;1.20;;;;;;;6.91;nan;101415.94;5249544;27;19999;-95
2024/04/14 06:10:47;;;;;;;7.03;1.40;;;;;;;6.89;nan;101415.97;5249207;27;20438;-93
2024/04/14 06:13:13;;;;;;;12.73;2.05;;;;;;;6.99;nan;101419.13;5248683;27;20009;-93
2024/04/14 06:15:39;;;;;;;6.00;1.35;;;;;;;7.02;nan;101406.22;5248653;27;19999;-93
2024/04/14 06:18:05;;;;;;;7.82;1.40;;;;;;;7.17;nan;101426.34;5248597;27;20014;-94
2024/04/14 06:20:30;;;;;;;6.28;1.38;;;;;;;7.09;nan;101433.41;5248918;27;20337;-94
2024/04/14 06:22:55;;;;;;;7.40;1.77;;;;;;;7.20;nan;101444.22;5248645;27;20002;-94
2024/04/14 06:25:21;;;;;;;12.52;1.60;;;;;;;7.27;nan;101434.63;5249049;27;20009;-94
2024/04/14 06:27:46;;;;;;;9.60;1.42;;;;;;;7.35;nan;101431.84;5248814;27;20014;-94
2024/04/14 06:30:12;;;;;;;5.80;1.50;;;;;;;7.47;nan;101434.06;5249041;27;20444;-95
2024/04/14 06:32:37;;;;;;;14.13;1.77;;;;;;;7.57;nan;101445.75;5248901;27;20043;-96
2024/04/14 06:35:03;;;;;;;6.65;1.55;;;;;;;7.62;nan;101438.75;5248845;27;19991;-95
2024/04/14 06:37:29;;;;;;;7.63;1.70;;;;;;;7.70;nan;101431.66;5249958;27;20452;-95
2024/04/14 06:39:54;;;;;;;8.98;2.17;;;;;;;7.81;nan;101433.09;5248442;27;19994;-95
2024/04/14 06:42:19;;;;;;;6.65;1.10;;;;;;;7.87;nan;101440.59;5248070;27;19995;-95
2024/04/14 06:44:45;;;;;;;6.00;1.50;;;;;;;7.96;nan;101442.06;5248636;27;20325;-95
2024/04/14 06:47:10;;;;;;;8.23;1.45;;;;;;;8.01;nan;101435.88;5248197;27;19998;-93
2024/04/14 06:49:36;;;;;;;9.15;1.58;;;;;;;8.04;nan;101445.22;5248307;27;19998;-95
2024/04/14 06:52:01;;;;;;;5.05;1.00;;;;;;;8.13;nan;101442.38;5247958;27;20449;-95
2024/04/14 06:54:27;;;;;;;7.50;1.10;;;;;;;8.26;nan;101453.13;5247983;27;19998;-92
2024/04/14 06:56:52;;;;;;;7.40;1.35;;;;;;;8.38;nan;101457.88;5249434;27;20442;-93
2024/04/14 06:59:17;;;;;;;13.23;1.75;;;;;;;8.57;nan;101464.16;5251573;27;20002;-93
2024/04/14 07:01:43;;;;;;;5.68;1.40;;;;;;;8.94;nan;101465.50;5251321;27;19998;-95
2024/04/14 07:04:08;;;;;;;8.63;1.20;;;;;;;9.36;nan;101462.31;5251368;27;20337;-94
2024/04/14 07:06:34;;;;;;;10.70;1.25;;;;;;;9.93;nan;101457.63;5251379;27;20006;-95
2024/04/14 07:08:59;;;;;;;7.68;1.55;;;;;;;10.77;nan;101455.19;5251384;27;20009;-94
2024/04/14 07:11:25;;;;;;;7.55;1.73;;;;;;;11.12;nan;101451.94;5251963;27;19997;-94
2024/04/14 07:13:50;;;;;;;8.55;1.83;;;;;;;10.99;nan;101449.94;5251512;27;20034;-94
2024/04/14 07:16:15;;;;;;;7.13;1.40;;;;;;;10.73;nan;101453.63;5251028;27;20079;-94
2024/04/14 07:18:41;;;;;;;11.25;2.63;;;;;;;10.82;nan;101458.41;5251098;27;20448;-93
2024/04/14 07:21:06;;;;;;;9.48;2.00;;;;;;;11.11;nan;101459.75;5251830;27;20458;-95
2024/04/14 07:23:33;;;;;;;9.27;1.30;;;;;;;11.57;nan;101466.31;5251741;27;20763;-94
2024/04/14 07:25:58;;;;;;;8.25;1.23;;;;;;;12.42;nan;101455.44;5251200;27;19998;-94
2024/04/14 07:28:23;;;;;;;8.77;1.67;;;;;;;12.98;nan;101463.06;5251395;27;19998;-94
2024/04/14 07:30:49;;;;;;;7.72;1.33;;;;;;;13.33;nan;101455.22;5252563;27;19998;-95
2024/04/14 07:33:17;;;;;;;8.52;1.42;;;;;;;14.09;nan;101455.41;5255759;27;20007;-96
2024/04/14 07:35:43;;;;;;;10.23;1.48;;;;;;;14.44;nan;101468.19;5250805;27;20017;-93
2024/04/14 07:38:08;;;;;;;6.30;1.17;;;;;;;14.91;nan;101465.44;5261328;27;20005;-92
2024/04/14 07:40:33;;;;;;;8.52;1.63;;;;;;;14.71;nan;101464.00;5289132;27;20049;-93
2024/04/14 07:42:59;;;;;;;5.15;1.33;;;;;;;14.51;nan;101470.34;5285072;27;20002;-93
2024/04/14 07:45:24;;;;;;;12.65;1.60;;;;;;;14.13;nan;101468.13;5285272;27;20001;-93
2024/04/14 07:47:50;;;;;;;9.13;1.27;;;;;;;14.47;nan;101466.22;5287699;27;20441;-95
2024/04/14 07:50:15;;;;;;;8.43;1.73;;;;;;;14.41;nan;101468.34;5284641;27;19990;-95
2024/04/14 07:52:40;;;;;;;8.45;1.52;;;;;;;14.71;nan;101456.22;5283345;27;20009;-92
2024/04/14 07:55:06;;;;;;;10.30;1.33;;;;;;;15.40;nan;101452.06;5282925;27;20071;-94
2024/04/14 07:57:32;;;;;;;9.00;1.83;;;;;;;15.19;nan;101450.78;5283777;27;20009;-93
2024/04/14 07:59:57;;;;;;;6.50;1.13;;;;;;;14.74;nan;101445.63;5284023;27;19997;-94
2024/04/14 08:02:23;;;;;;;10.63;1.50;;;;;;;14.86;nan;101446.69;5275735;27;20002;-94
2024/04/14 08:04:49;;;;;;;12.90;1.67;;;;;;;15.22;nan;101445.41;5251957;27;20591;-94
2024/04/14 08:07:15;;;;;;;6.80;1.42;;;;;;;15.39;nan;101446.97;5258625;27;20005;-93
2024/04/14 08:09:40;;;;;;;7.97;1.55;;;;;;;15.96;nan;101453.84;5283059;27;20012;-92
2024/04/14 08:12:06;;;;;;;9.07;1.40;;;;;;;16.19;nan;101450.63;5254661;27;20010;-91
2024/04/14 08:14:31;;;;;;;7.72;1.55;;;;;;;15.95;nan;101449.59;5249328;27;20341;-92
2024/04/14 08:16:57;;;;;;;11.73;1.67;;;;;;;16.08;nan;101452.25;5248764;27;20402;-93
2024/04/14 08:19:22;;;;;;;9.10;1.25;;;;;;;16.23;nan;101449.47;5257435;27;20001;-92
2024/04/14 08:21:47;;;;;;;11.82;1.85;;;;;;;16.09;nan;101448.69;5281682;27;20009;-94
2024/04/14 08:24:14;;;;;;;5.90;0.90;;;;;;;17.06;nan;101446.56;5312341;27;20020;-94
2024/04/14 08:26:39;;;;;;;10.52;1.92;;;;;;;17.08;nan;101444.69;5282354;27;20012;-95
2024/04/14 08:29:04;;;;;;;7.00;1.38;;;;;;;17.45;nan;101449.13;5283173;27;20005;-93
2024/04/14 08:31:30;;;;;;;9.85;1.63;;;;;;;17.79;nan;101454.56;5286051;27;20001;-96
2024/04/14 08:33:55;;;;;;;9.15;1.10;;;;;;;16.90;nan;101443.34;5285401;27;20068;-92
2024/04/14 08:36:20;;;;;;;9.98;1.90;;;;;;;18.00;nan;101453.06;5285481;26;20005;-96
2024/04/14 08:38:48;;;;;;;6.47;1.27;;;;;;;18.39;nan;101449.28;5287222;27;20008;-96
2024/04/14 08:41:17;;;;;;;6.05;1.73;;;;;;;18.60;nan;101446.81;5287778;27;20510;-94
2024/04/14 08:43:43;;;;;;;7.88;1.45;;;;;;;17.76;nan;101453.84;5285044;27;20103;-95
2024/04/14 08:46:12;;;;;;;7.15;1.33;;;;;;;18.11;nan;101444.41;5283772;27;20005;-93
2024/04/14 08:48:39;;;;;;;9.30;1.40;;;;;;;18.36;nan;101448.66;5284759;27;20002;-94
2024/04/14 08:51:05;;;;;;;10.82;1.20;;;;;;;18.19;nan;101444.69;5283003;27;20029;-95
2024/04/14 08:53:32;;;;;;;9.73;0.80;;;;;;;17.25;nan;101443.50;5283980;27;20016;-94
2024/04/14 08:55:57;;;;;;;11.25;1.25;;;;;;;16.69;nan;101453.41;5281537;27;20041;-94
2024/04/14 08:58:26;;;;;;;8.75;1.20;;;;;;;16.21;nan;101440.06;5273956;27;20456;-95
2024/04/14 09:01:01;;;;;;;7.53;1.15;;;;;;;16.89;nan;101452.91;5286809;27;20001;-95
2024/04/14 09:03:29;;;;;;;7.95;1.42;;;;;;;17.63;nan;101449.59;5284681;27;20455;-92
2024/04/14 09:05:58;;;;;;;6.63;1.30;;;;;;;17.79;nan;101451.94;5264828;27;20006;-95
2024/04/14 09:08:25;;;;;;;4.70;1.50;;;;;;;18.56;nan;101444.59;5249417;27;20009;-96
2024/04/14 09:10:50;;;;;;;4.35;1.10;;;;;;;18.40;nan;101443.09;5249363;27;20014;-94
2024/04/14 09:13:17;;;;;;;7.47;1.40;;;;;;;18.71;nan;101440.81;5249853;27;20002;-94
2024/04/14 09:15:43;;;;;;;6.80;1.02;;;;;;;18.39;nan;101444.06;5250136;27;20002;-93
2024/04/14 09:18:08;;;;;;;5.20;0.90;;;;;;;17.96;nan;101444.59;5250212;27;20009;-94
2024/04/14 09:20:34;;;;;;;6.07;1.05;;;;;;;17.10;nan;101450.63;5248017;27;20031;-94
2024/04/14 09:22:59;;;;;;;5.63;1.60;;;;;;;17.78;nan;101443.28;5249694;27;20009;-94
2024/04/14 09:25:25;;;;;;;8.60;1.13;;;;;;;17.49;nan;101448.78;5249170;27;20453;-94
2024/04/14 09:28:00;;;;;;;11.10;1.42;;;;;;;16.86;nan;101449.69;5249400;27;20000;-93
2024/04/14 09:30:26;;;;;;;6.70;1.73;;;;;;;16.65;nan;101455.41;5249167;27;20305;-93
2024/04/14 09:32:52;;;;;;;8.50;2.20;;;;;;;16.52;nan;101459.75;5249846;27;19999;-96
2024/04/14 09:35:18;;;;;;;4.78;0.80;;;;;;;16.94;nan;101452.63;5249975;27;20009;-95
2024/04/14 09:37:44;;;;;;;5.95;1.10;;;;;;;16.93;nan;101457.94;5249246;27;19998;-94
2024/04/14 09:40:12;;;;;;;5.13;0.80;;;;;;;17.58;nan;101457.78;5249377;27;20022;-95
2024/04/14 09:42:37;;;;;;;9.05;1.38;;;;;;;17.22;nan;101450.75;5249481;27;19998;-94
2024/04/14 09:45:06;;;;;;;5.72;1.23;;;;;;;16.84;nan;101462.00;5249420;27;20009;-94
2024/04/14 09:47:32;;;;;;;8.85;1.63;;;;;;;16.80;nan;101453.56;5249086;27;20079;-94
2024/04/14 09:49:58;;;;;;;4.75;1.42;;;;;;;17.09;nan;101451.59;5249492;27;20324;-95
2024/04/14 09:52:25;;;;;;;6.53;1.52;;;;;;;16.41;nan;101451.78;5249531;27;20329;-94
2024/04/14 09:54:53;;;;;;;10.45;2.20;;;;;;;17.11;nan;101446.25;5249306;27;20013;-95
2024/04/14 09:57:18;;;;;;;6.32;1.75;;;;;;;16.87;nan;101452.22;5248919;27;20001;-95
2024/04/14 09:59:43;;;;;;;6.20;1.30;;;;;;;17.30;nan;101437.97;5248842;27;19999;-95
2024/04/14 10:02:19;;;;;;;4.28;1.30;;;;;;;17.25;nan;101440.09;5248660;27;20010;-95
2024/04/14 10:04:48;;;;;;;9.50;1.83;;;;;;;16.47;nan;101433.16;5248683;27;20333;-95
2024/04/14 10:07:15;;;;;;;6.32;1.23;;;;;;;16.99;nan;101439.25;5247872;27;20010;-94
2024/04/14 10:09:47;;;;;;;6.00;1.27;;;;;;;16.69;nan;101438.59;5248882;27;19998;-95
2024/04/14 10:12:13;;;;;;;10.07;1.60;;;;;;;15.91;nan;101435.91;5248829;27;19998;-95
2024/04/14 10:14:48;;;;;;;4.88;1.17;;;;;;;15.99;nan;101449.28;5248712;27;20351;-94
2024/04/14 10:17:17;;;;;;;6.65;1.25;;;;;;;16.04;nan;101442.03;5248307;27;20050;-95
2024/04/14 10:19:51;;;;;;;8.43;1.00;;;;;;;16.06;nan;101434.09;5248701;27;20503;-94
2024/04/14 10:22:21;;;;;;;7.47;1.83;;;;;;;15.48;nan;101442.94;5248879;27;20336;-94
2024/04/14 10:24:53;;;;;;;7.60;1.60;;;;;;;16.05;nan;101437.66;5248781;27;19998;-95
2024/04/14 10:27:18;;;;;;;4.28;1.42;;;;;;;16.56;nan;101427.34;5248324;27;20012;-95
2024/04/14 10:29:57;;;;;;;5.65;1.42;;;;;;;16.34;nan;101421.88;5248679;27;20002;-96
2024/04/14 10:32:22;;;;;;;5.93;1.00;;;;;;;15.79;nan;101410.66;5250403;27;20468;-95
2024/04/14 10:34:48;;;;;;;7.25;1.65;;;;;;;15.85;nan;101418.09;5251760;27;20030;-95
2024/04/14 10:37:24;;;;;;;8.23;1.23;;;;;;;15.88;nan;101404.06;5251246;27;20003;-95
2024/04/14 10:39:51;;;;;;;5.93;1.33;;;;;;;15.95;nan;101410.53;5250923;27;20010;-94
2024/04/14 10:42:17;;;;;;;7.30;1.02;;;;;;;15.96;nan;101396.56;5251460;27;20006;-93
2024/04/14 10:44:43;;;;;;;10.88;1.45;;;;;;;15.78;nan;101404.63;5251475;27;20010;-95
2024/04/14 10:47:09;;;;;;;8.43;1.65;;;;;;;15.33;nan;101403.94;5251050;27;20049;-95
2024/04/14 10:49:34;;;;;;;9.68;1.33;;;;;;;15.48;nan;101403.94;5250971;27;19999;-94
2024/04/14 10:52:00;;;;;;;4.20;0.95;;;;;;;15.40;nan;101400.03;5251141;27;19999;-94
2024/04/14 10:54:25;;;;;;;5.95;1.25;;;;;;;15.97;nan;101393.03;5251049;27;20360;-94
2024/04/14 10:56:53;;;;;;;8.50;2.03;;;;;;;16.25;nan;101387.69;5251489;27;20072;-93
2024/04/14 10:59:19;;;;;;;6.93;1.10;;;;;;;16.65;nan;101390.25;5251243;27;20002;-93
2024/04/14 11:01:44;;;;;;;2.92;0.90;;;;;;;16.44;nan;101386.47;5250701;27;20013;-95
2024/04/14 11:04:16;;;;;;;6.70;1.20;;;;;;;16.84;nan;101381.16;5251604;27;20092;-94
2024/04/14 11:06:41;;;;;;;;;;;;;;;16.60;nan;101375.81;5251765;27;20516;-93
2024/04/14 11:09:06;;;;;;;12.05;1.20;;;;;;;16.64;nan;101378.13;5251249;27;19935;-94
2024/04/14 11:11:32;;;;;;;8.15;1.10;;;;;;;16.19;nan;101380.28;5250934;27;20010;-95
2024/04/14 11:13:57;;;;;;;10.80;1.50;;;;;;;15.68;nan;101371.44;5250973;27;20013;-95
2024/04/14 11:16:23;;;;;;;5.95;1.00;;;;;;;15.67;nan;101370.59;5250902;27;20013;-93
2024/04/14 11:18:48;;;;;;;5.97;1.38;;;;;;;16.66;nan;101358.00;5250925;27;20006;-93
2024/04/14 11:21:17;;;;;;;8.88;1.02;;;;;;;17.53;nan;101356.28;5250837;27;20009;-95
2024/04/14 11:23:47;;;;;;;5.28;0.90;;;;;;;18.44;nan;101356.63;5251047;27;20002;-95
2024/04/14 11:26:12;;;;;;;5.95;1.85;;;;;;;18.19;nan;101353.22;5250549;27;20076;-94
2024/04/14 11:28:39;;;;;;;8.80;1.00;;;;;;;17.29;nan;101350.22;5250492;27;20026;-95
2024/04/14 11:31:05;;;;;;;6.68;1.10;;;;;;;17.10;nan;101346.28;5250664;27;19999;-95
2024/04/14 11:33:30;;;;;;;7.63;0.85;;;;;;;17.95;nan;101348.91;5250635;27;20050;-95
2024/04/14 11:35:59;;;;;;;4.85;0.90;;;;;;;19.24;nan;101346.88;5250422;27;19998;-95
2024/04/14 11:38:25;;;;;;;8.13;1.23;;;;;;;19.59;nan;101340.59;5250352;27;20080;-95